This demonstration page uses our WeatherBlox Daily Observations layout. Learn more.

36.19886, -115.1175

Hourly Observations for May 27, 2018

Temp ( °F °C ) Dew Point ( °F °C ) Humidity (%) Winds ( mph kmh ) Pressure ( in mb ) Visibility ( mi km ) Precip ( " mm )
12:53 am 00:53 Clear 74 23.3 34 1.1 23 23 NNW 12 19 29.77 1008 10 16.09344 0 0
1:53 am 01:53 Clear 73 22.8 36 2.2 26 26 NW 15 24 29.77 1008 10 16.09344 0 0
2:53 am 02:53 Clear 72 22.2 38 3.3 29 29 WNW 14 22 29.77 1008 10 16.09344 0 0
3:53 am 03:53 Clear 72 22.2 37 2.8 28 28 NNW 15 24 29.77 1008 10 16.09344 0 0
4:53 am 04:53 Clear 71 21.7 37 2.8 29 29 NW 16 26 29.77 1008 10 16.09344 0 0
5:53 am 05:53 Sunny 71 21.7 38 3.3 30 30 NW 15 24 29.8 1009 10 16.09344 0 0
6:53 am 06:53 Sunny 73 22.8 39 3.9 29 29 NNW 12 19 29.8 1009 10 16.09344 0 0
7:53 am 07:53 Sunny 73 22.8 40 4.4 30 30 N 10 17 29.83 1010 10 16.09344 0 0
8:53 am 08:53 Mostly Sunny 74 23.3 39 3.9 28 28 NNE 12 19 29.83 1010 10 16.09344 0 0
9:53 am 09:53 Partly Cloudy 77 25 37 2.8 24 24 N 7 11 29.83 1010 10 16.09344 0 0
10:53 am 10:53 Partly Cloudy 78 25.6 36 2.2 22 22 E 6 9 29.85 1011 10 16.09344 0 0
11:53 am 11:53 Mostly Sunny 80 26.7 36 2.2 20 20 N 6 9 29.83 1010 10 16.09344 0 0
12:53 pm 12:53 Mostly Sunny 82 27.8 35 1.7 18 18 undefined N/A 29.83 1010 10 16.09344 0 0
1:53 pm 13:53 Sunny 85 29.4 34 1.1 16 16 W 9 15 29.8 1009 10 16.09344 0 0
2:53 pm 14:53 Sunny 86 30 34 1.1 15 15 NE 8 13 29.8 1009 10 16.09344 0 0
3:53 pm 15:53 Mostly Sunny 87 30.6 33 0.6 14 14 undefined N/A 29.77 1008 10 16.09344 0 0
4:53 pm 16:53 Sunny 86 30 34 1.1 15 15 WNW 13 20 29.77 1008 10 16.09344 0 0
5:53 pm 17:53 Mostly Sunny 85 29.4 29 -1.7 13 13 WNW 10 17 29.77 1008 10 16.09344 0 0
6:53 pm 18:53 Sunny 82 27.8 37 2.8 20 20 NNW 14 22 29.8 1009 10 16.09344 0 0
7:53 pm 19:53 Clear 81 27.2 36 2.2 20 20 NW 15 24 29.8 1009 10 16.09344 0 0
8:53 pm 20:53 Clear 80 26.7 37 2.8 21 21 NW 10 17 29.8 1009 10 16.09344 0 0
9:53 pm 21:53 Clear 78 25.6 37 2.8 23 23 NW 7 11 29.83 1010 10 16.09344 0 0
10:53 pm 22:53 Clear 78 25.6 36 2.2 22 22 NNW 8 13 29.83 1010 10 16.09344 0 0
11:53 pm 23:53 Clear 74 23.3 37 2.8 26 26 NNW 7 11 29.83 1010 10 16.09344 0 0

Powered by AerisWeather